Terminal Aerodrome Forecast
Issued by NWS

Home | Current Version | Previous Version | Text Only | Print | Product List | Glossary On
Versions: 1 2 3 4 5 6 7 8 9 10 11 12 13 14 15 16 17 18 19 20 21 22 23 24 25 26 27 28 29 30 31 32 33 34 35 36 37 38 39 40 41 42 43 44 45 46 47 48 49
000
FTUS43 KMKX 220338 AAB
TAFUES
TAF AMD
KUES 220338Z 2204/2224 11005KT 6SM BR SCT100
     FM220400 VRB03KT 2SM BR SCT006 BKN100
     FM220900 VRB03KT 3/4SM BR BKN006
     FM221500 VRB03KT P6SM SCT025 BKN040
     FM221700 26004KT P6SM SCT035
     FM222300 08005KT P6SM FEW045 SCT050=

USA.gov is the U.S. government's official web portal to all federal, state and local government web resources and services.